Southeast Iowa Regional Airport Burlington US
ICAO: KBRL
IATA: BRL
Category: Medium
Scheduled Services: Yes

Elevation: 698 ft
TransAlt. 18000 ft.

Airport Communications:
ASOS:118.025
CHICAGO CNTR:135.6
FORT DODGE RDO:122.65
CTAF/UNICOM:123

KBRL Zoom In..

If you have problems with the map follow the link
https://www.worldairports.se/pages/airport.php?
ICAO=KBRL

Runways:

(A) RW 12 length 5351 ft width 100 ft
---- / hdg 119

(B) RW 18 length 6701 ft width 150 ft
---- / hdg 179

(C) RW 30 length 5351 ft width 100 ft
---- / hdg 299

(D) RW 36 length 6701 ft width 150 ft
ILS 108.90 / hdg 359

Location; KBRL
Day. 21 / Time. 06.53 Zulu
* Altimeter: 30.39
* Temperature: -01° c. -30.2°f.
* Wind from: 360° Speed 04 kn.
Dewpoint: -06° c.
Visibility: 10 Statute Miles.
Clouds: Clear (automated report).

KBRL 210653Z AUTO 36004KT 10SM CLR M01/M06 A3039 RMK AO2 SLP294 T10111061


Wind From 360°
Speed 04 kn.

 
 
jpsmedia.com for Web Design worldairports.se 2018   terms of use